Terminal Aerodrome Forecast
Issued by NWS

Home | Current Version | Previous Version | Text Only | Print | Product List | Glossary On
Versions: 1 2 3 4 5 6 7 8 9 10 11 12 13 14 15 16 17
329
FTUS46 KPDT 262320
TAFALW
TAF
KALW 262320Z 2700/2724 21012G19KT P6SM -SHRA BKN040 BKN060
     FM270300 20017G24KT P6SM BKN070 OVC090
     FM271200 20012G19KT P6SM OVC050
     FM271700 22016G23KT P6SM SCT060 BKN080=

USA.gov is the U.S. government's official web portal to all federal, state and local government web resources and services.